Port Alsworth, Alaska
Current Conditions -  °F | °C
As of 7:53 PM on Saturday 20 Dec 2014 (Local Time) from PAIL Reporting Station
Scattered Clouds Scattered Clouds  
Wind Chill:   Ceiling: Unl
Heat Index: 18°   Visibility: 10mi
Dew Point: 12°   Wind: 10mph
Humidity: 78%   Direction: 10°N
Pressure: 28.93"   Gusts: NA
Location:  60.2°N, 154.32°W
Report Text: PAIL 210453Z 01009KT 10SM SCT070 M08/M11 A2893 RMK AO2 SLP800 T10781111
Loading
Personal Weather Stations






























Interactive Weather Map New forecast layout! Learn more

10-Day Weather Forecast

Advertisements
Track Severe Weather on mobile